createdAt,value
2022-10-07T00:02:23.456Z,19.39
2022-10-07T00:04:53.813Z,19.45
2022-10-07T00:07:24.247Z,19.48
2022-10-07T00:09:54.692Z,19.48
2022-10-07T00:12:24.617Z,19.48
2022-10-07T00:14:54.724Z,19.44
2022-10-07T00:17:25.445Z,19.48
2022-10-07T00:19:57.845Z,19.45
2022-10-07T00:22:28.360Z,19.42
2022-10-07T00:24:58.777Z,19.41
2022-10-07T00:27:29.270Z,19.41
2022-10-07T00:29:59.839Z,19.44
2022-10-07T00:32:30.309Z,19.44
2022-10-07T00:35:00.695Z,19.44
2022-10-07T00:37:31.149Z,19.44
2022-10-07T00:40:01.589Z,19.44
2022-10-07T00:42:32.237Z,19.44
2022-10-07T00:45:02.736Z,19.35
2022-10-07T00:47:36.482Z,19.31
2022-10-07T00:50:17.033Z,19.30
2022-10-07T00:52:55.775Z,19.36
2022-10-07T00:55:30.550Z,19.39
2022-10-07T00:58:10.757Z,19.38
2022-10-07T01:00:42.045Z,19.36
2022-10-07T01:03:14.443Z,19.34
2022-10-07T01:05:45.370Z,19.35
2022-10-07T01:08:17.293Z,19.34
2022-10-07T01:11:03.603Z,19.32
2022-10-07T01:13:50.034Z,19.31
2022-10-07T01:16:49.934Z,19.27
2022-10-07T01:19:20.955Z,19.32
2022-10-07T01:22:18.396Z,19.34
2022-10-07T01:25:16.886Z,19.31
2022-10-07T01:28:11.347Z,19.30
2022-10-07T01:30:50.774Z,19.30
2022-10-07T01:33:29.069Z,19.28
2022-10-07T01:36:04.928Z,19.27
2022-10-07T01:38:38.504Z,19.27
2022-10-07T01:41:18.105Z,19.27
2022-10-07T01:43:50.269Z,19.28
2022-10-07T01:46:26.223Z,19.34
2022-10-07T01:48:59.704Z,19.35
2022-10-07T01:51:35.675Z,19.36
2022-10-07T01:54:06.128Z,19.36
2022-10-07T01:57:00.869Z,19.42
2022-10-07T02:00:01.896Z,19.45
2022-10-07T02:03:26.727Z,19.51
2022-10-07T02:06:19.380Z,19.52
2022-10-07T02:08:55.735Z,19.52
2022-10-07T02:11:37.193Z,19.48
2022-10-07T02:14:28.089Z,19.47
2022-10-07T02:17:12.017Z,19.39
2022-10-07T02:19:55.171Z,19.39
2022-10-07T02:22:30.614Z,19.38
2022-10-07T02:25:02.351Z,19.39
2022-10-07T02:27:38.266Z,19.35
2022-10-07T02:30:14.498Z,19.36
2022-10-07T02:32:57.759Z,19.42
2022-10-07T02:36:01.450Z,19.44
2022-10-07T02:38:32.582Z,19.48
2022-10-07T02:41:14.725Z,19.54
2022-10-07T02:43:54.871Z,19.58
2022-10-07T02:46:48.859Z,19.61
2022-10-07T02:49:21.604Z,19.59
2022-10-07T02:52:12.630Z,19.59
2022-10-07T02:54:46.880Z,19.57
2022-10-07T02:57:21.078Z,19.54
2022-10-07T02:59:53.321Z,19.52
2022-10-07T03:02:38.798Z,19.48
2022-10-07T03:05:11.017Z,19.47
2022-10-07T03:07:43.194Z,19.48
2022-10-07T03:10:14.332Z,19.42
2022-10-07T03:12:45.646Z,19.47
2022-10-07T03:15:16.400Z,19.50
2022-10-07T03:17:48.391Z,19.47
2022-10-07T03:20:18.968Z,19.38
2022-10-07T03:22:49.891Z,19.38
2022-10-07T03:25:21.970Z,19.38
2022-10-07T03:27:52.502Z,19.28
2022-10-07T03:30:24.719Z,19.27
2022-10-07T03:32:56.509Z,19.25
2022-10-07T03:35:27.316Z,19.18
2022-10-07T03:37:57.952Z,19.17
2022-10-07T03:40:28.473Z,19.20
2022-10-07T03:42:59.268Z,19.15
2022-10-07T03:45:31.747Z,19.17
2022-10-07T03:48:02.372Z,19.15
2022-10-07T03:50:32.857Z,19.13
2022-10-07T03:53:03.335Z,19.07
2022-10-07T03:55:34.077Z,19.06
2022-10-07T03:58:04.573Z,19.06
2022-10-07T04:00:35.144Z,19.07
2022-10-07T04:03:06.970Z,19.10
2022-10-07T04:05:38.860Z,19.14
2022-10-07T04:08:09.887Z,19.17
2022-10-07T04:10:40.363Z,19.17
2022-10-07T04:13:11.083Z,19.23
2022-10-07T04:15:41.677Z,19.24
2022-10-07T04:18:12.968Z,19.21
2022-10-07T04:20:43.822Z,19.21
2022-10-07T04:23:16.153Z,19.24
2022-10-07T04:25:48.308Z,19.28
2022-10-07T04:28:29.819Z,19.27
2022-10-07T04:31:22.827Z,19.23
2022-10-07T04:34:01.418Z,19.24
2022-10-07T04:36:36.959Z,19.20
2022-10-07T04:39:10.796Z,19.17
2022-10-07T04:41:46.161Z,19.10
2022-10-07T04:44:21.932Z,19.04
2022-10-07T04:47:01.514Z,18.97
2022-10-07T04:49:34.156Z,18.96
2022-10-07T04:52:07.215Z,19.00
2022-10-07T04:54:40.786Z,19.01
2022-10-07T04:57:13.604Z,19.03
2022-10-07T04:59:45.541Z,19.00
2022-10-07T05:02:20.293Z,18.99
2022-10-07T05:04:50.896Z,19.00
2022-10-07T05:07:21.488Z,19.04
2022-10-07T05:09:52.559Z,19.07
2022-10-07T05:12:23.658Z,19.06
2022-10-07T05:14:54.436Z,19.01
2022-10-07T05:17:25.303Z,18.97
2022-10-07T05:19:56.274Z,18.99
2022-10-07T05:22:27.145Z,18.99
2022-10-07T05:24:58.297Z,18.97
2022-10-07T05:27:28.822Z,19.00
2022-10-07T05:29:59.765Z,18.92
2022-10-07T05:32:32.890Z,18.93
2022-10-07T05:35:03.501Z,18.89
2022-10-07T05:37:34.986Z,18.84
2022-10-07T05:40:05.762Z,18.76
2022-10-07T05:42:36.299Z,18.76
2022-10-07T05:45:08.357Z,18.74
2022-10-07T05:47:38.946Z,18.70
2022-10-07T05:50:10.503Z,18.73
2022-10-07T05:52:41.293Z,18.73
2022-10-07T05:55:11.997Z,18.63
2022-10-07T05:57:42.851Z,18.62
2022-10-07T06:00:14.071Z,18.62
2022-10-07T06:02:49.070Z,18.51
2022-10-07T06:05:20.215Z,18.43
2022-10-07T06:07:50.637Z,18.36
2022-10-07T06:10:39.602Z,18.29
2022-10-07T06:13:11.442Z,18.32
2022-10-07T06:15:44.900Z,18.32
2022-10-07T06:18:15.340Z,18.32
2022-10-07T06:20:58.347Z,18.31
2022-10-07T06:23:30.897Z,18.25
2022-10-07T06:26:05.643Z,18.13
2022-10-07T06:28:42.293Z,18.00
2022-10-07T06:31:15.613Z,17.87
2022-10-07T06:33:47.042Z,17.81
2022-10-07T06:36:17.915Z,17.75
2022-10-07T06:38:51.926Z,17.66
2022-10-07T06:41:27.202Z,17.69
2022-10-07T06:44:15.954Z,17.57
2022-10-07T06:46:48.021Z,17.55
2022-10-07T06:49:18.835Z,17.63
2022-10-07T06:51:49.833Z,17.51
2022-10-07T06:54:20.432Z,17.53
2022-10-07T06:56:50.967Z,17.51
2022-10-07T06:59:21.866Z,17.47
2022-10-07T07:02:05.626Z,17.36
2022-10-07T07:04:36.968Z,17.33
2022-10-07T07:07:06.949Z,17.30
2022-10-07T07:09:37.348Z,17.27
2022-10-07T07:12:09.183Z,17.19
2022-10-07T07:14:44.293Z,17.15
2022-10-07T07:17:20.342Z,17.08
2022-10-07T07:19:50.915Z,17.00
2022-10-07T07:22:22.341Z,17.02
2022-10-07T07:24:53.713Z,16.98
2022-10-07T07:27:24.982Z,16.98
2022-10-07T07:29:55.394Z,16.90
2022-10-07T07:32:25.421Z,16.86
2022-10-07T07:34:57.018Z,16.90
2022-10-07T07:37:27.942Z,16.86
2022-10-07T07:39:59.547Z,16.86
2022-10-07T07:42:30.248Z,16.86
2022-10-07T07:45:01.258Z,16.86
2022-10-07T07:47:32.396Z,16.83
2022-10-07T07:50:04.742Z,16.78
2022-10-07T07:52:37.482Z,16.79
2022-10-07T07:55:09.905Z,16.79
2022-10-07T07:57:41.194Z,16.76
2022-10-07T08:00:13.979Z,16.83
2022-10-07T08:02:47.852Z,16.82
2022-10-07T08:05:23.881Z,16.79
2022-10-07T08:07:59.763Z,16.79
2022-10-07T08:10:31.066Z,16.78
2022-10-07T08:13:02.405Z,16.78
2022-10-07T08:15:32.910Z,16.78
2022-10-07T08:18:05.687Z,16.79
2022-10-07T08:20:38.202Z,16.81
2022-10-07T08:23:09.973Z,16.75
2022-10-07T08:25:39.916Z,16.71
2022-10-07T08:28:11.020Z,16.71
2022-10-07T08:30:41.444Z,16.71
2022-10-07T08:33:11.368Z,16.67
2022-10-07T08:35:41.709Z,16.67
2022-10-07T08:38:14.639Z,16.67
2022-10-07T08:40:52.529Z,16.58
2022-10-07T08:43:26.262Z,16.61
2022-10-07T08:45:57.395Z,16.58
2022-10-07T08:48:35.511Z,16.54
2022-10-07T08:51:29.687Z,16.49
2022-10-07T08:54:00.787Z,16.48
2022-10-07T08:56:32.807Z,16.48
2022-10-07T08:59:23.066Z,16.45
2022-10-07T09:02:07.035Z,16.41
2022-10-07T09:05:07.628Z,16.41
2022-10-07T09:07:49.059Z,16.37
2022-10-07T09:10:54.668Z,16.34
2022-10-07T09:13:38.701Z,16.37
2022-10-07T09:16:28.771Z,16.38
2022-10-07T09:19:05.198Z,16.35
2022-10-07T09:21:45.216Z,16.32
2022-10-07T09:24:25.836Z,16.32
2022-10-07T09:27:01.365Z,16.37
2022-10-07T09:29:32.766Z,16.38
2022-10-07T09:32:03.712Z,16.30
2022-10-07T09:34:34.318Z,16.34
2022-10-07T09:37:16.210Z,16.40
2022-10-07T09:39:48.285Z,16.40
2022-10-07T09:42:40.419Z,16.42
2022-10-07T09:45:29.683Z,16.40
2022-10-07T09:48:10.005Z,16.44
2022-10-07T09:50:46.040Z,16.51
2022-10-07T09:53:34.722Z,16.52
2022-10-07T09:56:05.216Z,16.52
2022-10-07T09:58:35.187Z,16.64
2022-10-07T10:01:13.285Z,16.69
2022-10-07T10:03:43.820Z,16.67
2022-10-07T10:06:14.292Z,16.73
2022-10-07T10:08:45.662Z,16.76
2022-10-07T10:11:22.270Z,16.86
2022-10-07T10:13:54.019Z,16.85
2022-10-07T10:16:27.346Z,16.88
2022-10-07T10:19:06.543Z,16.76
2022-10-07T10:21:43.360Z,16.73
2022-10-07T10:24:17.868Z,16.76
2022-10-07T10:27:09.188Z,16.93
2022-10-07T10:29:39.610Z,17.03
2022-10-07T10:32:22.390Z,16.98
2022-10-07T10:35:16.512Z,16.88
2022-10-07T10:38:04.954Z,16.86
2022-10-07T10:40:39.666Z,16.88
2022-10-07T10:43:28.025Z,16.92
2022-10-07T10:46:27.794Z,16.89
2022-10-07T10:49:20.951Z,16.92
2022-10-07T10:52:21.399Z,16.82
2022-10-07T10:55:01.489Z,16.81
2022-10-07T10:58:00.273Z,16.83
2022-10-07T11:00:46.524Z,16.86
2022-10-07T11:03:39.120Z,16.88
2022-10-07T11:06:16.541Z,16.89
2022-10-07T11:08:48.815Z,17.08
2022-10-07T11:11:21.891Z,17.12
2022-10-07T11:14:14.804Z,17.10
2022-10-07T11:16:54.198Z,17.15
2022-10-07T11:19:44.959Z,17.15
2022-10-07T11:22:21.667Z,17.20
2022-10-07T11:24:59.034Z,17.12
2022-10-07T11:27:33.426Z,17.05
2022-10-07T11:30:20.690Z,17.02
2022-10-07T11:33:09.730Z,17.09
2022-10-07T11:35:46.247Z,17.00
2022-10-07T11:38:22.138Z,16.95
2022-10-07T11:40:58.537Z,16.89
2022-10-07T11:43:58.419Z,16.88
2022-10-07T11:46:54.817Z,16.82
2022-10-07T11:49:56.972Z,16.82
2022-10-07T11:52:30.662Z,16.86
2022-10-07T11:55:13.035Z,16.98
2022-10-07T11:57:44.962Z,17.02
2022-10-07T12:00:29.672Z,17.09
2022-10-07T12:03:19.355Z,17.16
2022-10-07T12:05:52.701Z,17.13
2022-10-07T12:08:39.803Z,17.13
2022-10-07T12:11:16.391Z,17.16
2022-10-07T12:13:54.863Z,17.13
2022-10-07T12:16:34.334Z,17.24
2022-10-07T12:19:14.169Z,17.22
2022-10-07T12:22:00.661Z,17.23
2022-10-07T12:24:37.356Z,17.26
2022-10-07T12:27:17.358Z,17.33
2022-10-07T12:29:52.702Z,17.31
2022-10-07T12:32:47.611Z,17.37
2022-10-07T12:35:54.564Z,17.46
2022-10-07T12:38:32.356Z,17.51
2022-10-07T12:41:13.255Z,17.54
2022-10-07T12:43:46.542Z,17.55
2022-10-07T12:46:21.086Z,17.51
2022-10-07T12:49:21.626Z,17.50
2022-10-07T12:51:55.963Z,17.49
2022-10-07T12:54:34.020Z,17.53
2022-10-07T12:57:05.727Z,17.60
2022-10-07T12:59:51.600Z,17.63
2022-10-07T13:02:32.422Z,17.70
2022-10-07T13:05:20.911Z,17.63
2022-10-07T13:08:03.375Z,18.00
2022-10-07T13:10:33.761Z,18.52
2022-10-07T13:13:08.062Z,18.39
2022-10-07T13:15:49.958Z,18.24
2022-10-07T13:18:41.186Z,18.18
2022-10-07T13:21:20.547Z,18.16
2022-10-07T13:23:54.160Z,18.18
2022-10-07T13:26:27.351Z,18.28
2022-10-07T13:29:00.791Z,18.33
2022-10-07T13:31:34.555Z,18.33
2022-10-07T13:34:17.871Z,18.48
2022-10-07T13:36:48.306Z,18.89
2022-10-07T13:39:18.621Z,19.15
2022-10-07T13:41:57.026Z,19.15
2022-10-07T13:44:34.111Z,18.80
2022-10-07T13:47:10.563Z,18.67
2022-10-07T13:49:45.143Z,18.52
2022-10-07T13:52:37.845Z,18.46
2022-10-07T13:55:30.008Z,18.56
2022-10-07T13:58:03.306Z,18.56
2022-10-07T14:00:46.481Z,19.03
2022-10-07T14:03:18.555Z,19.58
2022-10-07T14:05:54.621Z,19.21
2022-10-07T14:08:29.448Z,19.68
2022-10-07T14:11:09.113Z,19.28
2022-10-07T14:13:40.059Z,19.76
2022-10-07T14:16:23.862Z,20.12
2022-10-07T14:18:54.624Z,20.30
2022-10-07T14:21:25.310Z,20.48
2022-10-07T14:23:55.851Z,20.36
2022-10-07T14:26:45.002Z,20.05
2022-10-07T14:29:31.129Z,19.81
2022-10-07T14:32:31.973Z,20.05
2022-10-07T14:35:20.127Z,19.89
2022-10-07T14:37:50.954Z,20.05
2022-10-07T14:40:24.908Z,20.90
2022-10-07T14:42:56.312Z,21.59
2022-10-07T14:45:28.163Z,20.78
2022-10-07T14:47:58.757Z,20.32
2022-10-07T14:50:30.784Z,20.19
2022-10-07T14:53:01.488Z,20.77
2022-10-07T14:55:32.024Z,20.50
2022-10-07T14:58:02.636Z,20.23
2022-10-07T15:00:37.332Z,20.91
2022-10-07T15:03:09.324Z,20.73
2022-10-07T15:05:39.944Z,20.53
2022-10-07T15:08:13.477Z,20.27
2022-10-07T15:10:44.600Z,20.26
2022-10-07T15:13:15.794Z,20.58
2022-10-07T15:15:47.579Z,21.18
2022-10-07T15:18:18.092Z,21.18
2022-10-07T15:20:55.939Z,21.36
2022-10-07T15:23:26.634Z,21.12
2022-10-07T15:25:57.168Z,20.80
2022-10-07T15:28:27.727Z,20.95
2022-10-07T15:31:09.795Z,20.97
2022-10-07T15:33:42.664Z,20.70
2022-10-07T15:36:14.663Z,21.80
2022-10-07T15:38:45.566Z,22.47
2022-10-07T15:41:37.572Z,22.18
2022-10-07T15:44:21.908Z,21.43
2022-10-07T15:46:55.874Z,21.43
2022-10-07T15:49:26.431Z,22.59
2022-10-07T15:51:57.514Z,21.57
2022-10-07T15:54:28.013Z,21.16
2022-10-07T15:56:58.590Z,21.08
2022-10-07T15:59:29.508Z,21.96
2022-10-07T16:02:00.192Z,21.42
2022-10-07T16:04:30.903Z,21.02
2022-10-07T16:07:01.611Z,21.59
2022-10-07T16:09:32.175Z,22.51
2022-10-07T16:12:02.635Z,22.40
2022-10-07T16:14:33.225Z,22.54
2022-10-07T16:17:23.351Z,23.09
2022-10-07T16:19:53.795Z,23.43
2022-10-07T16:22:24.589Z,22.30
2022-10-07T16:24:57.145Z,22.16
2022-10-07T16:27:47.784Z,22.55
2022-10-07T16:30:36.846Z,21.89
2022-10-07T16:33:06.731Z,21.92
2022-10-07T16:35:36.916Z,22.81
2022-10-07T16:38:09.027Z,22.54
2022-10-07T16:40:39.889Z,22.79
2022-10-07T16:43:10.457Z,23.64
2022-10-07T16:45:41.942Z,23.54
2022-10-07T16:48:13.708Z,23.97
2022-10-07T16:50:49.207Z,23.91
2022-10-07T16:53:19.649Z,24.42
2022-10-07T16:55:50.231Z,23.96
2022-10-07T16:58:20.838Z,23.31
2022-10-07T17:00:51.391Z,23.53
2022-10-07T17:03:22.252Z,23.15
2022-10-07T17:05:57.974Z,23.84
2022-10-07T17:08:30.707Z,23.30
2022-10-07T17:11:02.251Z,23.26
2022-10-07T17:13:36.770Z,24.00
2022-10-07T17:16:08.461Z,23.54
2022-10-07T17:18:38.822Z,23.36
2022-10-07T17:21:09.373Z,23.20
2022-10-07T17:23:39.973Z,23.70
2022-10-07T17:26:10.787Z,23.77
2022-10-07T17:28:41.314Z,24.14
2022-10-07T17:31:13.720Z,23.24
2022-10-07T17:33:47.327Z,23.50
2022-10-07T17:36:17.765Z,23.29
2022-10-07T17:38:48.585Z,23.96
2022-10-07T17:41:24.694Z,23.91
2022-10-07T17:43:59.818Z,23.97
2022-10-07T17:46:34.111Z,24.30
2022-10-07T17:49:05.217Z,23.56
2022-10-07T17:51:37.843Z,23.17
2022-10-07T17:54:08.636Z,23.74
2022-10-07T17:56:39.117Z,24.39
2022-10-07T17:59:09.587Z,24.33
2022-10-07T18:01:40.268Z,23.22
2022-10-07T18:04:19.918Z,23.46
2022-10-07T18:06:52.904Z,23.68
2022-10-07T18:09:25.442Z,23.97
2022-10-07T18:12:14.175Z,24.01
2022-10-07T18:15:04.074Z,24.29
2022-10-07T18:17:34.421Z,24.21
2022-10-07T18:20:10.330Z,24.08
2022-10-07T18:22:45.539Z,23.90
2022-10-07T18:25:16.023Z,24.17
2022-10-07T18:27:46.647Z,24.33
2022-10-07T18:30:17.843Z,24.36
2022-10-07T18:32:48.313Z,24.42
2022-10-07T18:35:19.872Z,23.53
2022-10-07T18:37:52.555Z,23.64
2022-10-07T18:40:24.590Z,23.88
2022-10-07T18:42:55.225Z,23.91
2022-10-07T18:45:26.255Z,24.28
2022-10-07T18:47:57.311Z,24.62
2022-10-07T18:50:31.394Z,24.17
2022-10-07T18:53:04.185Z,24.35
2022-10-07T18:55:34.661Z,23.88
2022-10-07T18:58:05.212Z,24.38
2022-10-07T19:00:35.679Z,26.33
2022-10-07T19:03:06.331Z,26.60
2022-10-07T19:05:43.378Z,25.27
2022-10-07T19:08:13.892Z,25.23
2022-10-07T19:10:44.883Z,25.64
2022-10-07T19:13:34.659Z,24.89
2022-10-07T19:16:06.294Z,24.38
2022-10-07T19:18:37.310Z,24.55
2022-10-07T19:21:07.811Z,24.58
2022-10-07T19:23:38.322Z,24.32
2022-10-07T19:26:12.223Z,24.51
2022-10-07T19:28:43.255Z,24.66
2022-10-07T19:31:19.777Z,24.32
2022-10-07T19:33:51.743Z,24.49
2022-10-07T19:36:24.423Z,24.30
2022-10-07T19:38:54.905Z,24.28
2022-10-07T19:41:28.474Z,24.36
2022-10-07T19:43:59.883Z,24.22
2022-10-07T19:46:32.327Z,24.11
2022-10-07T19:49:04.567Z,24.19
2022-10-07T19:51:36.070Z,24.40
2022-10-07T19:54:11.110Z,24.28
2022-10-07T19:56:42.543Z,24.60
2022-10-07T19:59:14.923Z,24.59
2022-10-07T20:01:48.694Z,24.77
2022-10-07T20:04:22.204Z,24.72
2022-10-07T20:06:52.675Z,24.33
2022-10-07T20:09:23.897Z,24.11
2022-10-07T20:11:54.337Z,24.47
2022-10-07T20:14:24.897Z,26.23
2022-10-07T20:16:57.895Z,26.92
2022-10-07T20:19:28.448Z,27.52
2022-10-07T20:22:02.353Z,26.73
2022-10-07T20:24:32.819Z,28.33
2022-10-07T20:27:03.190Z,27.74
2022-10-07T20:29:34.135Z,26.88
2022-10-07T20:32:04.744Z,25.74
2022-10-07T20:34:35.280Z,25.17
2022-10-07T20:37:05.715Z,25.64
2022-10-07T20:39:54.372Z,24.80
2022-10-07T20:42:26.802Z,24.60
2022-10-07T20:45:01.782Z,24.19
2022-10-07T20:47:34.126Z,24.12
2022-10-07T20:50:05.613Z,23.78
2022-10-07T20:52:37.964Z,23.51
2022-10-07T20:55:10.811Z,23.34
2022-10-07T20:57:41.795Z,23.22
2022-10-07T21:00:17.466Z,22.79
2022-10-07T21:02:48.260Z,22.62
2022-10-07T21:05:18.903Z,22.45
2022-10-07T21:07:54.380Z,22.21
2022-10-07T21:10:25.209Z,22.11
2022-10-07T21:12:55.573Z,21.98
2022-10-07T21:15:27.045Z,21.92
2022-10-07T21:17:57.580Z,21.79
2022-10-07T21:20:28.026Z,21.70
2022-10-07T21:22:58.602Z,21.60
2022-10-07T21:25:29.073Z,21.52
2022-10-07T21:27:59.902Z,21.39
2022-10-07T21:30:30.845Z,21.31
2022-10-07T21:33:01.244Z,21.24
2022-10-07T21:35:34.388Z,21.14
2022-10-07T21:38:04.776Z,21.01
2022-10-07T21:40:35.471Z,20.97
2022-10-07T21:43:05.904Z,20.92
2022-10-07T21:45:36.344Z,20.84
2022-10-07T21:48:06.640Z,20.78
2022-10-07T21:50:37.427Z,20.70
2022-10-07T21:53:07.828Z,20.65
2022-10-07T21:55:38.144Z,20.60
2022-10-07T21:58:08.414Z,20.53
2022-10-07T22:00:39.749Z,20.43
2022-10-07T22:03:13.736Z,20.34
2022-10-07T22:05:44.349Z,20.29
2022-10-07T22:08:34.643Z,20.29
2022-10-07T22:11:09.559Z,20.22
2022-10-07T22:13:45.736Z,20.20
2022-10-07T22:16:18.537Z,20.15
2022-10-07T22:18:51.609Z,20.08
2022-10-07T22:21:24.785Z,20.05
2022-10-07T22:24:00.592Z,19.99
2022-10-07T22:26:35.548Z,19.95
2022-10-07T22:29:06.525Z,19.89
2022-10-07T22:31:37.697Z,19.90
2022-10-07T22:34:09.185Z,19.85
2022-10-07T22:36:40.293Z,19.78
2022-10-07T22:39:10.690Z,19.69
2022-10-07T22:41:41.758Z,19.65
2022-10-07T22:44:12.275Z,19.57
2022-10-07T22:46:42.795Z,19.48
2022-10-07T22:49:13.371Z,19.41
2022-10-07T22:51:44.814Z,19.32
2022-10-07T22:54:16.367Z,19.25
2022-10-07T22:56:47.290Z,19.17
2022-10-07T22:59:17.744Z,19.11
2022-10-07T23:01:48.308Z,19.01
2022-10-07T23:04:21.662Z,18.92
2022-10-07T23:06:52.367Z,18.86
2022-10-07T23:09:22.792Z,18.72
2022-10-07T23:11:53.415Z,18.59
2022-10-07T23:14:24.536Z,18.49
2022-10-07T23:16:54.832Z,18.45
2022-10-07T23:19:25.286Z,18.35
2022-10-07T23:21:57.025Z,18.21
2022-10-07T23:24:29.634Z,18.12
2022-10-07T23:27:00.128Z,18.18
2022-10-07T23:29:31.312Z,18.12
2022-10-07T23:32:01.798Z,18.15
2022-10-07T23:34:33.276Z,18.06
2022-10-07T23:37:04.151Z,18.12
2022-10-07T23:39:35.317Z,18.08
2022-10-07T23:42:05.897Z,18.05
2022-10-07T23:44:36.374Z,18.06
2022-10-07T23:47:07.487Z,18.02
2022-10-07T23:49:37.953Z,17.94
2022-10-07T23:52:08.967Z,17.97
2022-10-07T23:54:39.733Z,17.91
2022-10-07T23:57:10.236Z,17.88
2022-10-07T23:59:40.612Z,17.81
